Time;durP1;ratioP1;P1;durP2;ratioP2;P2;SDS_P1;SDS_P2;PMS_P1;PMS_P2;Temp;Humidity;BMP_temperature;BMP_pressure;BME280_temperature;BME280_humidity;BME280_pressure;Samples;Min_cycle;Max_cycle;Signal;HPM_P1;HPM_P2
2021/12/23 00:00:46;;;;;;;37.67;27.67;;;;;;;;;;6175519;28;20313;-68
2021/12/23 00:04:10;;;;;;;43.23;27.87;;;;;;;;;;6171079;28;20260;-67
2021/12/23 00:07:31;;;;;;;41.90;28.03;;;;;;;;;;6180959;28;20573;-67
2021/12/23 00:10:52;;;;;;;41.00;26.87;;;;;;;;;;6183679;28;20246;-67
2021/12/23 00:14:14;;;;;;;39.23;24.80;;;;;;;;;;6178952;28;20222;-67
2021/12/23 00:17:55;;;;;;;41.07;27.73;;;;;;;;;;6180858;28;20230;-66
2021/12/23 00:24:58;;;;;;;42.47;26.87;;;;;;;;;;6166331;28;20600;-66
2021/12/23 00:28:19;;;;;;;44.47;27.67;;;;;;;;;;6178774;28;20238;-67
2021/12/23 00:31:40;;;;;;;39.93;27.30;;;;;;;;;;6190251;28;20506;-66
2021/12/23 00:35:02;;;;;;;40.30;25.90;;;;;;;;;;6178348;28;20234;-66
2021/12/23 00:38:28;;;;;;;39.40;27.80;;;;;;;;;;6178505;28;20234;-66
2021/12/23 00:41:51;;;;;;;36.03;26.17;;;;;;;;;;6148192;28;20230;-67
2021/12/23 00:45:12;;;;;;;40.17;24.43;;;;;;;;;;6190335;28;20232;-66
2021/12/23 00:48:35;;;;;;;36.47;25.67;;;;;;;;;;6183976;28;20231;-65
2021/12/23 00:51:57;;;;;;;38.10;25.83;;;;;;;;;;6186274;28;20225;-66
2021/12/23 00:55:19;;;;;;;38.10;24.43;;;;;;;;;;6179774;28;20234;-66
2021/12/23 00:58:40;;;;;;;35.23;24.33;;;;;;;;;;6171222;28;20234;-66
2021/12/23 01:02:03;;;;;;;37.00;25.53;;;;;;;;;;6197373;28;20226;-67
2021/12/23 01:05:24;;;;;;;39.17;26.37;;;;;;;;;;6180290;28;20240;-66
2021/12/23 01:08:45;;;;;;;33.97;25.90;;;;;;;;;;6185427;28;20321;-67
2021/12/23 01:12:10;;;;;;;38.87;27.07;;;;;;;;;;6184817;28;20226;-66
2021/12/23 01:19:12;;;;;;;34.63;23.33;;;;;;;;;;6178085;28;20660;-65
2021/12/23 01:22:33;;;;;;;33.13;24.00;;;;;;;;;;6182180;28;20313;-66
2021/12/23 01:25:54;;;;;;;32.37;22.87;;;;;;;;;;6175836;28;20229;-66
2021/12/23 01:29:16;;;;;;;33.47;22.43;;;;;;;;;;6180544;28;20238;-65
2021/12/23 01:32:36;;;;;;;30.23;22.17;;;;;;;;;;6191145;28;20233;-66
2021/12/23 01:35:57;;;;;;;30.93;23.33;;;;;;;;;;6178504;28;20231;-66
2021/12/23 01:39:18;;;;;;;34.73;24.17;;;;;;;;;;6188537;28;20238;-67
2021/12/23 01:42:40;;;;;;;32.63;21.97;;;;;;;;;;6187029;28;20317;-65
2021/12/23 01:46:02;;;;;;;38.07;24.43;;;;;;;;;;6184928;28;20226;-67
2021/12/23 01:49:23;;;;;;;36.97;24.73;;;;;;;;;;6193274;28;20567;-67
2021/12/23 01:52:44;;;;;;;32.40;22.83;;;;;;;;;;6186683;28;20608;-67
2021/12/23 01:56:05;;;;;;;30.77;22.43;;;;;;;;;;6175776;28;20229;-66
2021/12/23 01:59:26;;;;;;;35.57;23.77;;;;;;;;;;6193385;28;20615;-66
2021/12/23 02:02:48;;;;;;;30.50;21.77;;;;;;;;;;6179391;28;20242;-66
2021/12/23 02:06:10;;;;;;;36.60;22.43;;;;;;;;;;6178140;28;20269;-66
2021/12/23 02:09:31;;;;;;;29.00;21.13;;;;;;;;;;6196008;28;20233;-66
2021/12/23 02:12:52;;;;;;;28.27;21.57;;;;;;;;;;6189928;28;20229;-67
2021/12/23 02:16:13;;;;;;;30.73;22.00;;;;;;;;;;6194139;28;20229;-67
2021/12/23 02:19:35;;;;;;;30.43;20.70;;;;;;;;;;6193095;28;20675;-67
2021/12/23 02:22:57;;;;;;;31.57;21.10;;;;;;;;;;6181598;28;20222;-66
2021/12/23 02:26:18;;;;;;;27.97;19.60;;;;;;;;;;6191091;28;20317;-67
2021/12/23 02:29:39;;;;;;;30.33;21.57;;;;;;;;;;6180623;28;20234;-66
2021/12/23 02:33:00;;;;;;;33.93;23.73;;;;;;;;;;6185957;28;20223;-66
2021/12/23 02:36:21;;;;;;;28.57;21.40;;;;;;;;;;6185233;28;20596;-67
2021/12/23 02:39:43;;;;;;;29.23;20.97;;;;;;;;;;6188952;28;20235;-67
2021/12/23 02:43:13;;;;;;;31.53;22.37;;;;;;;;;;6188523;28;20599;-66
2021/12/23 02:46:35;;;;;;;27.37;20.93;;;;;;;;;;6189220;28;20643;-67
2021/12/23 02:49:56;;;;;;;26.93;20.30;;;;;;;;;;6181156;28;20278;-66
2021/12/23 02:53:17;;;;;;;29.70;21.10;;;;;;;;;;6192150;28;20234;-66
2021/12/23 02:56:39;;;;;;;31.17;20.57;;;;;;;;;;6182824;28;20320;-66
2021/12/23 03:00:00;;;;;;;30.97;19.57;;;;;;;;;;6180402;28;20230;-66
2021/12/23 03:03:21;;;;;;;30.07;22.33;;;;;;;;;;6195243;28;20237;-66
2021/12/23 03:06:42;;;;;;;29.80;22.37;;;;;;;;;;6190687;28;20671;-67
2021/12/23 03:10:05;;;;;;;30.77;21.40;;;;;;;;;;6187995;28;20229;-65
2021/12/23 03:13:27;;;;;;;28.30;20.00;;;;;;;;;;6190243;28;20316;-66
2021/12/23 03:16:50;;;;;;;29.53;20.70;;;;;;;;;;6186613;28;20230;-67
2021/12/23 03:20:12;;;;;;;32.53;21.17;;;;;;;;;;6173676;28;20226;-68
2021/12/23 03:23:33;;;;;;;28.70;19.80;;;;;;;;;;6176014;28;20235;-65
2021/12/23 03:26:53;;;;;;;28.93;21.27;;;;;;;;;;6181357;28;20230;-66
2021/12/23 03:30:15;;;;;;;32.13;21.73;;;;;;;;;;6188184;28;20225;-66
2021/12/23 03:33:36;;;;;;;29.87;20.90;;;;;;;;;;6171115;28;20230;-67
2021/12/23 03:36:57;;;;;;;29.67;21.30;;;;;;;;;;6183913;28;20261;-67
2021/12/23 03:40:18;;;;;;;30.10;21.53;;;;;;;;;;6183324;28;20278;-67
2021/12/23 03:43:39;;;;;;;28.80;19.70;;;;;;;;;;6179185;28;20246;-66
2021/12/23 03:47:01;;;;;;;32.63;22.90;;;;;;;;;;6183312;28;20239;-66
2021/12/23 03:50:24;;;;;;;28.33;20.43;;;;;;;;;;6190931;28;20237;-67
2021/12/23 03:53:45;;;;;;;28.33;20.10;;;;;;;;;;6193074;28;20226;-66
2021/12/23 03:57:06;;;;;;;28.37;20.90;;;;;;;;;;6183587;28;20253;-66
2021/12/23 04:00:27;;;;;;;27.53;21.13;;;;;;;;;;6183634;28;20234;-66
2021/12/23 04:03:50;;;;;;;26.33;19.23;;;;;;;;;;6183448;28;20317;-67
2021/12/23 04:07:11;;;;;;;29.27;19.70;;;;;;;;;;6184638;28;20230;-67
2021/12/23 04:10:33;;;;;;;30.37;22.13;;;;;;;;;;6190721;28;20891;-65
2021/12/23 04:13:54;;;;;;;28.43;20.23;;;;;;;;;;6186568;28;20234;-66
2021/12/23 04:17:15;;;;;;;31.93;22.07;;;;;;;;;;6182455;28;20234;-67
2021/12/23 04:20:53;;;;;;;26.90;20.67;;;;;;;;;;6184321;28;20242;-67
2021/12/23 04:24:13;;;;;;;28.40;20.97;;;;;;;;;;6170104;28;20325;-66
2021/12/23 04:27:34;;;;;;;27.67;20.53;;;;;;;;;;6181628;28;20222;-67
2021/12/23 04:30:55;;;;;;;29.50;20.40;;;;;;;;;;6171486;28;22291;-66
2021/12/23 04:34:16;;;;;;;28.30;20.17;;;;;;;;;;6181474;28;20259;-66
2021/12/23 04:37:39;;;;;;;24.53;19.60;;;;;;;;;;6185306;28;20619;-66
2021/12/23 04:41:00;;;;;;;27.90;20.83;;;;;;;;;;6170752;28;20277;-67
2021/12/23 04:44:21;;;;;;;23.70;19.10;;;;;;;;;;6187077;28;20246;-67
2021/12/23 04:47:42;;;;;;;28.60;20.50;;;;;;;;;;6176400;28;20230;-66
2021/12/23 04:51:04;;;;;;;26.87;19.23;;;;;;;;;;6179036;28;20234;-66
2021/12/23 04:54:27;;;;;;;27.87;19.53;;;;;;;;;;6167285;28;20258;-66
2021/12/23 04:57:48;;;;;;;26.43;20.80;;;;;;;;;;6184001;28;20245;-66
2021/12/23 05:01:16;;;;;;;33.03;23.40;;;;;;;;;;6172279;28;20235;-66
2021/12/23 05:04:37;;;;;;;29.23;21.53;;;;;;;;;;6190030;28;20505;-65
2021/12/23 05:07:58;;;;;;;28.50;19.23;;;;;;;;;;6187371;28;20229;-65
2021/12/23 05:11:21;;;;;;;28.90;20.90;;;;;;;;;;6188886;28;20759;-67
2021/12/23 05:14:41;;;;;;;27.83;20.00;;;;;;;;;;6188202;28;20316;-66
2021/12/23 05:18:02;;;;;;;29.73;20.00;;;;;;;;;;6182457;28;20239;-67
2021/12/23 05:21:23;;;;;;;29.17;21.37;;;;;;;;;;6185036;28;20261;-66
2021/12/23 05:24:44;;;;;;;25.50;20.00;;;;;;;;;;6184124;28;20620;-67
2021/12/23 05:28:06;;;;;;;27.30;20.37;;;;;;;;;;6182434;28;20235;-66
2021/12/23 05:31:27;;;;;;;27.80;21.13;;;;;;;;;;6176499;28;20262;-66
2021/12/23 05:34:48;;;;;;;28.57;21.03;;;;;;;;;;6172021;28;20767;-66
2021/12/23 05:38:09;;;;;;;27.80;19.80;;;;;;;;;;6187195;28;20226;-66
2021/12/23 05:41:30;;;;;;;27.33;20.47;;;;;;;;;;6173868;28;20234;-66
2021/12/23 05:44:52;;;;;;;29.53;22.33;;;;;;;;;;6192415;28;20241;-66
2021/12/23 05:48:13;;;;;;;26.87;20.97;;;;;;;;;;6186144;28;20237;-67
2021/12/23 05:51:34;;;;;;;29.23;20.90;;;;;;;;;;6185300;28;20616;-66
2021/12/23 05:54:56;;;;;;;31.37;21.47;;;;;;;;;;6173073;28;20620;-66
2021/12/23 05:58:16;;;;;;;27.63;19.83;;;;;;;;;;6179586;28;20222;-67
2021/12/23 06:01:39;;;;;;;25.67;21.50;;;;;;;;;;6174320;28;20558;-67
2021/12/23 06:04:59;;;;;;;29.97;22.10;;;;;;;;;;6190675;28;20222;-67
2021/12/23 06:08:21;;;;;;;32.13;21.97;;;;;;;;;;6193577;28;20230;-66
2021/12/23 06:11:41;;;;;;;31.90;22.87;;;;;;;;;;6171695;28;20235;-66
2021/12/23 06:15:02;;;;;;;29.77;22.00;;;;;;;;;;6188898;28;20229;-67
2021/12/23 06:18:25;;;;;;;28.40;21.87;;;;;;;;;;6185508;28;20612;-67
2021/12/23 06:21:45;;;;;;;24.80;20.03;;;;;;;;;;6170671;28;20243;-67
2021/12/23 06:25:08;;;;;;;30.40;23.03;;;;;;;;;;6184082;28;20230;-66
2021/12/23 06:28:28;;;;;;;27.47;20.03;;;;;;;;;;6179541;28;20234;-66
2021/12/23 06:31:49;;;;;;;26.90;20.63;;;;;;;;;;6181205;28;20233;-66
2021/12/23 06:35:12;;;;;;;28.83;21.50;;;;;;;;;;6192191;28;20226;-65
2021/12/23 06:38:35;;;;;;;31.30;21.33;;;;;;;;;;6186733;28;20612;-66
2021/12/23 06:41:55;;;;;;;29.13;22.23;;;;;;;;;;6189401;28;20321;-66
2021/12/23 06:45:17;;;;;;;29.97;22.50;;;;;;;;;;6182226;28;20305;-65
2021/12/23 06:48:38;;;;;;;31.10;21.73;;;;;;;;;;6186672;28;20246;-66
2021/12/23 06:52:00;;;;;;;27.33;22.13;;;;;;;;;;6172396;28;20230;-66
2021/12/23 06:55:21;;;;;;;31.77;21.97;;;;;;;;;;6179159;28;20230;-65
2021/12/23 06:58:42;;;;;;;27.87;21.30;;;;;;;;;;6188189;28;20508;-66
2021/12/23 07:02:03;;;;;;;28.80;21.70;;;;;;;;;;6193845;28;20234;-66
2021/12/23 07:05:25;;;;;;;26.07;20.70;;;;;;;;;;6193191;28;20263;-67
2021/12/23 07:08:47;;;;;;;29.60;20.83;;;;;;;;;;6178503;28;20219;-66
2021/12/23 07:12:10;;;;;;;25.87;20.03;;;;;;;;;;6190673;28;20320;-66
2021/12/23 07:15:32;;;;;;;30.97;21.60;;;;;;;;;;6182204;28;20564;-66
2021/12/23 07:18:53;;;;;;;31.07;21.93;;;;;;;;;;6180071;28;20671;-66
2021/12/23 07:22:14;;;;;;;33.47;23.33;;;;;;;;;;6184432;28;20226;-66
2021/12/23 07:25:36;;;;;;;32.63;22.67;;;;;;;;;;6181768;28;20636;-67
2021/12/23 07:28:57;;;;;;;27.10;21.60;;;;;;;;;;6177824;28;20234;-67
2021/12/23 07:32:18;;;;;;;29.77;21.67;;;;;;;;;;6188281;28;20238;-67
2021/12/23 07:35:39;;;;;;;26.30;21.00;;;;;;;;;;6187912;28;20234;-67
2021/12/23 07:39:01;;;;;;;27.60;20.73;;;;;;;;;;6178134;28;20234;-66
2021/12/23 07:42:25;;;;;;;23.87;19.80;;;;;;;;;;6182237;28;20505;-66
2021/12/23 07:45:46;;;;;;;27.27;20.33;;;;;;;;;;6192259;28;20309;-65
2021/12/23 07:49:07;;;;;;;25.93;19.83;;;;;;;;;;6184755;28;20296;-66
2021/12/23 07:52:28;;;;;;;28.80;20.30;;;;;;;;;;6192800;28;20249;-66
2021/12/23 07:55:49;;;;;;;25.57;19.97;;;;;;;;;;6177877;28;20615;-67
2021/12/23 07:59:11;;;;;;;24.53;19.33;;;;;;;;;;6182840;28;20234;-66
2021/12/23 08:02:32;;;;;;;28.17;21.83;;;;;;;;;;6179832;28;20234;-66
2021/12/23 08:05:53;;;;;;;28.17;20.00;;;;;;;;;;6173629;28;20238;-66
2021/12/23 08:09:14;;;;;;;25.80;20.47;;;;;;;;;;6188349;28;20222;-66
2021/12/23 08:12:35;;;;;;;25.87;18.43;;;;;;;;;;6186980;28;20225;-67
2021/12/23 08:16:00;;;;;;;26.80;21.17;;;;;;;;;;6193273;28;20238;-66
2021/12/23 08:19:21;;;;;;;29.33;22.93;;;;;;;;;;6183236;28;20230;-66
2021/12/23 08:22:42;;;;;;;28.93;20.60;;;;;;;;;;6185924;28;20234;-66
2021/12/23 08:26:10;;;;;;;25.03;19.43;;;;;;;;;;6172976;28;20313;-66
2021/12/23 08:29:31;;;;;;;25.43;20.00;;;;;;;;;;6193122;28;20238;-67
2021/12/23 08:32:53;;;;;;;29.73;20.27;;;;;;;;;;6192303;28;20611;-65
2021/12/23 08:36:14;;;;;;;26.03;21.07;;;;;;;;;;6177787;28;20258;-66
2021/12/23 08:39:35;;;;;;;25.00;19.40;;;;;;;;;;6178864;28;20554;-66
2021/12/23 08:42:57;;;;;;;24.57;20.80;;;;;;;;;;6197417;28;20234;-65
2021/12/23 08:46:18;;;;;;;26.60;20.30;;;;;;;;;;6187904;28;20221;-66
2021/12/23 08:49:41;;;;;;;25.77;20.00;;;;;;;;;;6181288;28;20242;-67
2021/12/23 08:53:03;;;;;;;25.73;19.23;;;;;;;;;;6180537;28;20234;-66
2021/12/23 08:56:24;;;;;;;25.87;20.40;;;;;;;;;;6184680;28;20326;-65
2021/12/23 08:59:46;;;;;;;23.87;18.23;;;;;;;;;;6180771;28;20390;-66
2021/12/23 09:03:08;;;;;;;26.37;20.33;;;;;;;;;;6191398;28;20233;-67
2021/12/23 09:06:30;;;;;;;25.33;20.97;;;;;;;;;;6182551;28;20269;-66
2021/12/23 09:09:52;;;;;;;27.33;19.63;;;;;;;;;;6177690;28;20616;-67
2021/12/23 09:13:12;;;;;;;29.37;21.73;;;;;;;;;;6185977;28;20230;-68
2021/12/23 09:16:34;;;;;;;24.00;19.73;;;;;;;;;;6191489;28;20230;-66
2021/12/23 09:19:54;;;;;;;25.77;21.60;;;;;;;;;;6186143;28;20230;-67
2021/12/23 09:23:17;;;;;;;31.57;21.40;;;;;;;;;;6185050;28;20481;-66
2021/12/23 09:26:47;;;;;;;26.27;21.30;;;;;;;;;;6174439;28;20285;-66
2021/12/23 09:33:48;;;;;;;23.83;18.43;;;;;;;;;;6186877;28;20230;-67
2021/12/23 09:37:09;;;;;;;27.90;20.97;;;;;;;;;;6173254;28;20231;-67
2021/12/23 09:40:33;;;;;;;23.70;19.83;;;;;;;;;;6186165;28;20234;-67
2021/12/23 09:43:56;;;;;;;26.90;19.70;;;;;;;;;;6184358;28;20238;-66
2021/12/23 09:47:17;;;;;;;24.20;19.67;;;;;;;;;;6184679;28;20234;-66
2021/12/23 09:50:41;;;;;;;26.63;20.60;;;;;;;;;;6178632;28;20422;-66
2021/12/23 09:54:04;;;;;;;23.10;19.87;;;;;;;;;;6170932;28;20931;-66
2021/12/23 09:57:26;;;;;;;25.17;19.93;;;;;;;;;;6188561;28;20227;-67
2021/12/23 10:00:47;;;;;;;23.43;18.70;;;;;;;;;;6190415;28;20612;-66
2021/12/23 10:04:08;;;;;;;21.97;19.10;;;;;;;;;;6189091;28;20659;-67
2021/12/23 10:07:29;;;;;;;24.80;21.93;;;;;;;;;;6193340;28;20226;-66
2021/12/23 10:10:53;;;;;;;25.00;19.50;;;;;;;;;;6195639;28;20246;-67
2021/12/23 10:40:14;;;;;;;24.53;20.83;;;;;;;;;;6196065;28;20316;-65
2021/12/23 10:43:38;;;;;;;21.90;19.07;;;;;;;;;;6190929;28;20230;-67
2021/12/23 10:47:00;;;;;;;26.17;21.47;;;;;;;;;;6184851;28;20356;-66
2021/12/23 10:50:32;;;;;;;24.07;20.27;;;;;;;;;;6194048;28;20233;-67
2021/12/23 10:54:09;;;;;;;25.30;20.27;;;;;;;;;;6174646;28;20234;-66
2021/12/23 11:01:09;;;;;;;25.20;20.83;;;;;;;;;;6187134;28;20666;-66
2021/12/23 11:04:35;;;;;;;25.47;20.33;;;;;;;;;;6190012;28;20246;-67
2021/12/23 11:08:03;;;;;;;26.30;20.67;;;;;;;;;;6187724;28;20276;-66
2021/12/23 11:11:42;;;;;;;26.03;20.13;;;;;;;;;;6188444;28;20221;-67
2021/12/23 11:37:41;;;;;;;27.10;21.77;;;;;;;;;;6182384;28;20239;-67
2021/12/23 11:41:14;;;;;;;25.70;19.73;;;;;;;;;;6184069;28;20234;-67
2021/12/23 11:44:36;;;;;;;32.73;21.30;;;;;;;;;;6182762;28;20242;-67
2021/12/23 11:47:58;;;;;;;25.43;20.53;;;;;;;;;;6186222;28;20237;-66
2021/12/23 11:51:22;;;;;;;24.70;21.47;;;;;;;;;;6189782;28;20320;-65
2021/12/23 11:54:44;;;;;;;23.27;20.40;;;;;;;;;;6186084;28;20475;-66
2021/12/23 11:58:05;;;;;;;24.47;20.57;;;;;;;;;;6188670;28;20214;-66
2021/12/23 12:01:30;;;;;;;27.20;23.10;;;;;;;;;;6182797;28;20348;-67
2021/12/23 12:05:00;;;;;;;26.40;21.00;;;;;;;;;;6184925;28;20249;-68
2021/12/23 12:08:24;;;;;;;26.80;21.40;;;;;;;;;;6188258;28;20237;-68
2021/12/23 12:11:50;;;;;;;22.30;18.73;;;;;;;;;;6188549;28;20225;-67
2021/12/23 12:15:11;;;;;;;20.40;18.23;;;;;;;;;;6188693;28;20218;-66
2021/12/23 12:18:45;;;;;;;22.37;19.10;;;;;;;;;;6192523;28;20242;-66
2021/12/23 12:22:06;;;;;;;23.83;20.50;;;;;;;;;;6178842;28;20238;-66
2021/12/23 12:25:52;;;;;;;21.60;19.30;;;;;;;;;;6187725;28;20229;-65
2021/12/23 12:29:16;;;;;;;25.30;20.30;;;;;;;;;;6185520;28;20234;-66
2021/12/23 12:32:37;;;;;;;19.40;17.30;;;;;;;;;;6184749;28;20234;-66
2021/12/23 12:36:07;;;;;;;22.70;18.40;;;;;;;;;;6189928;28;20260;-66
2021/12/23 12:39:33;;;;;;;24.37;20.17;;;;;;;;;;6185201;28;20335;-67
2021/12/23 12:42:54;;;;;;;22.30;19.97;;;;;;;;;;6182788;28;20605;-67
2021/12/23 12:46:18;;;;;;;24.07;21.47;;;;;;;;;;6186542;28;20255;-66
2021/12/23 12:49:42;;;;;;;25.63;21.43;;;;;;;;;;6190211;28;20277;-67
2021/12/23 12:53:11;;;;;;;19.80;17.70;;;;;;;;;;6188545;28;20230;-66
2021/12/23 12:56:32;;;;;;;34.00;21.33;;;;;;;;;;6183308;28;20631;-67
2021/12/23 12:59:53;;;;;;;21.13;18.83;;;;;;;;;;6188142;28;20514;-67
2021/12/23 13:03:17;;;;;;;28.90;21.97;;;;;;;;;;6192305;28;20237;-67
2021/12/23 13:06:38;;;;;;;22.50;20.10;;;;;;;;;;6181032;28;20242;-67
2021/12/23 13:10:32;;;;;;;23.57;20.23;;;;;;;;;;6179888;28;20238;-67
2021/12/23 13:14:14;;;;;;;24.83;21.80;;;;;;;;;;6188651;28;20230;-66
2021/12/23 13:18:01;;;;;;;35.23;24.23;;;;;;;;;;6182790;28;20230;-66
2021/12/23 13:21:24;;;;;;;28.60;22.70;;;;;;;;;;6184984;28;20237;-68
2021/12/23 13:24:45;;;;;;;26.37;20.33;;;;;;;;;;6169305;28;20254;-65
2021/12/23 13:28:07;;;;;;;28.93;23.60;;;;;;;;;;6189262;28;20305;-66
2021/12/23 13:31:30;;;;;;;25.80;22.67;;;;;;;;;;6175080;28;20516;-66
2021/12/23 13:34:51;;;;;;;26.93;22.77;;;;;;;;;;6187558;28;20223;-67
2021/12/23 13:38:27;;;;;;;46.73;26.40;;;;;;;;;;6183063;28;20956;-66
2021/12/23 13:41:50;;;;;;;27.87;24.07;;;;;;;;;;6185310;28;20344;-65
2021/12/23 13:45:12;;;;;;;26.17;23.43;;;;;;;;;;6187021;28;20237;-66
2021/12/23 13:48:33;;;;;;;33.23;24.17;;;;;;;;;;6188910;28;20237;-67
2021/12/23 13:51:54;;;;;;;27.57;23.80;;;;;;;;;;6192380;28;20229;-67
2021/12/23 13:55:16;;;;;;;28.03;23.07;;;;;;;;;;6194501;28;20305;-67
2021/12/23 13:58:37;;;;;;;30.73;24.47;;;;;;;;;;6186455;28;20233;-68
2021/12/23 14:02:02;;;;;;;33.17;26.13;;;;;;;;;;6186445;28;20767;-66
2021/12/23 14:05:24;;;;;;;31.00;25.23;;;;;;;;;;6193950;28;20245;-68
2021/12/23 14:08:44;;;;;;;33.50;26.73;;;;;;;;;;6171933;28;20231;-67
2021/12/23 14:12:06;;;;;;;27.60;24.60;;;;;;;;;;6183881;28;20613;-68
2021/12/23 14:15:28;;;;;;;28.93;23.93;;;;;;;;;;6196685;28;20325;-67
2021/12/23 14:19:21;;;;;;;27.73;24.37;;;;;;;;;;6179063;28;20702;-67
2021/12/23 14:26:23;;;;;;;34.47;28.10;;;;;;;;;;6194130;28;20229;-66
2021/12/23 14:29:45;;;;;;;39.33;28.60;;;;;;;;;;6189015;28;20234;-67
2021/12/23 14:33:18;;;;;;;35.00;28.33;;;;;;;;;;6183152;28;20325;-67
2021/12/23 14:36:41;;;;;;;34.53;28.00;;;;;;;;;;6181014;28;20234;-67
2021/12/23 14:40:02;;;;;;;33.60;28.70;;;;;;;;;;6187124;28;20603;-67
2021/12/23 14:43:23;;;;;;;33.57;29.37;;;;;;;;;;6192417;28;20238;-69
2021/12/23 14:46:47;;;;;;;34.60;26.50;;;;;;;;;;6190555;28;20317;-68
2021/12/23 14:50:16;;;;;;;39.37;30.80;;;;;;;;;;6194985;28;20221;-66
2021/12/23 14:53:38;;;;;;;33.13;29.43;;;;;;;;;;6186106;28;20826;-68
2021/12/23 14:57:07;;;;;;;35.37;27.13;;;;;;;;;;6192459;28;20225;-66
2021/12/23 15:00:31;;;;;;;32.73;27.77;;;;;;;;;;6175708;28;20238;-67
2021/12/23 15:04:03;;;;;;;33.20;28.60;;;;;;;;;;6189646;28;20226;-67
2021/12/23 15:07:24;;;;;;;34.77;28.53;;;;;;;;;;6187713;28;20234;-66
2021/12/23 15:10:48;;;;;;;37.50;29.77;;;;;;;;;;6195961;28;20233;-67
2021/12/23 15:14:15;;;;;;;34.10;25.17;;;;;;;;;;6184342;28;20257;-68
2021/12/23 15:17:47;;;;;;;42.33;29.77;;;;;;;;;;6191450;28;20506;-67
2021/12/23 15:21:11;;;;;;;33.30;27.00;;;;;;;;;;6177348;28;20233;-68
2021/12/23 15:24:35;;;;;;;33.93;27.43;;;;;;;;;;6171478;28;20325;-67
2021/12/23 15:27:57;;;;;;;36.33;25.70;;;;;;;;;;6189317;28;20229;-67
2021/12/23 15:31:18;;;;;;;36.33;30.20;;;;;;;;;;6187334;28;20234;-67
2021/12/23 15:34:45;;;;;;;32.93;26.87;;;;;;;;;;6191123;28;20282;-67
2021/12/23 15:38:07;;;;;;;30.23;25.90;;;;;;;;;;6168463;28;20230;-67
2021/12/23 15:41:28;;;;;;;32.33;26.47;;;;;;;;;;6193709;28;20349;-68
2021/12/23 15:44:53;;;;;;;32.27;27.30;;;;;;;;;;6179742;28;20238;-68
2021/12/23 15:48:14;;;;;;;30.50;25.73;;;;;;;;;;6184927;28;20226;-67
2021/12/23 15:51:37;;;;;;;35.33;28.60;;;;;;;;;;6191978;28;20229;-67
2021/12/23 15:54:58;;;;;;;33.97;30.00;;;;;;;;;;6190280;28;20226;-67
2021/12/23 15:58:19;;;;;;;33.40;28.80;;;;;;;;;;6182927;28;20606;-68
2021/12/23 16:01:42;;;;;;;35.57;29.97;;;;;;;;;;6182370;28;20504;-65
2021/12/23 16:08:41;;;;;;;29.83;26.63;;;;;;;;;;6192570;28;20270;-66
2021/12/23 16:12:02;;;;;;;34.53;28.90;;;;;;;;;;6186379;28;20706;-66
2021/12/23 16:15:23;;;;;;;30.77;27.33;;;;;;;;;;6186978;28;20234;-67
2021/12/23 16:18:45;;;;;;;30.37;26.93;;;;;;;;;;6191332;28;20242;-66
2021/12/23 16:22:06;;;;;;;32.83;27.20;;;;;;;;;;6184607;28;20877;-67
2021/12/23 16:25:27;;;;;;;32.13;27.27;;;;;;;;;;6190550;28;20246;-66
2021/12/23 16:28:53;;;;;;;31.90;27.50;;;;;;;;;;6173699;28;20592;-68
2021/12/23 16:32:13;;;;;;;31.27;26.73;;;;;;;;;;6184478;28;20229;-67
2021/12/23 16:35:39;;;;;;;33.23;29.10;;;;;;;;;;6182153;28;20316;-67
2021/12/23 16:39:03;;;;;;;30.03;26.40;;;;;;;;;;6183818;28;20233;-68
2021/12/23 16:42:28;;;;;;;32.07;28.60;;;;;;;;;;6186106;28;20574;-67
2021/12/23 16:45:49;;;;;;;33.93;27.57;;;;;;;;;;6187408;28;20229;-66
2021/12/23 16:49:09;;;;;;;32.27;26.43;;;;;;;;;;6184839;28;20230;-66
2021/12/23 16:52:32;;;;;;;33.07;27.00;;;;;;;;;;6184071;28;20242;-67
2021/12/23 16:56:15;;;;;;;33.03;25.57;;;;;;;;;;6180731;28;20222;-67
2021/12/23 16:59:36;;;;;;;32.07;26.47;;;;;;;;;;6179166;28;20242;-66
2021/12/23 17:02:57;;;;;;;33.07;27.27;;;;;;;;;;6179224;28;20226;-68
2021/12/23 17:06:19;;;;;;;32.53;27.17;;;;;;;;;;6188788;28;20230;-67
2021/12/23 17:09:42;;;;;;;34.77;28.67;;;;;;;;;;6191631;28;20226;-68
2021/12/23 17:13:04;;;;;;;31.07;27.67;;;;;;;;;;6188170;28;20238;-66
2021/12/23 17:16:26;;;;;;;31.40;27.83;;;;;;;;;;6184872;28;20229;-67
2021/12/23 17:19:58;;;;;;;33.80;28.77;;;;;;;;;;6191875;28;20242;-67
2021/12/23 17:23:21;;;;;;;37.23;30.33;;;;;;;;;;6186002;28;20225;-66
2021/12/23 17:26:43;;;;;;;39.40;30.90;;;;;;;;;;6178838;28;20320;-66
2021/12/23 17:30:05;;;;;;;33.23;27.33;;;;;;;;;;6184972;28;20229;-68
2021/12/23 17:33:26;;;;;;;36.67;30.53;;;;;;;;;;6186459;28;20359;-67
2021/12/23 17:36:47;;;;;;;33.73;29.17;;;;;;;;;;6183178;28;20237;-67
2021/12/23 17:40:08;;;;;;;34.67;28.20;;;;;;;;;;6192530;28;20233;-67
2021/12/23 17:43:31;;;;;;;32.90;27.67;;;;;;;;;;6186291;28;20234;-67
2021/12/23 17:46:51;;;;;;;37.30;32.03;;;;;;;;;;6177121;28;20229;-69
2021/12/23 17:50:13;;;;;;;36.57;29.73;;;;;;;;;;6188563;28;20226;-69
2021/12/23 17:53:34;;;;;;;36.77;30.30;;;;;;;;;;6181156;28;20624;-67
2021/12/23 17:56:55;;;;;;;39.50;32.23;;;;;;;;;;6186730;28;20230;-69
2021/12/23 18:00:17;;;;;;;38.53;32.13;;;;;;;;;;6189508;28;20604;-68
2021/12/23 18:03:40;;;;;;;35.07;30.23;;;;;;;;;;6178367;28;20238;-67
2021/12/23 18:07:01;;;;;;;36.10;29.67;;;;;;;;;;6181538;28;20229;-69
2021/12/23 18:10:22;;;;;;;36.17;30.40;;;;;;;;;;6183294;28;20238;-69
2021/12/23 18:13:43;;;;;;;31.90;28.07;;;;;;;;;;6178287;28;20230;-68
2021/12/23 18:17:06;;;;;;;39.13;31.67;;;;;;;;;;6187796;28;20226;-68
2021/12/23 18:20:27;;;;;;;38.60;31.10;;;;;;;;;;6178322;28;20241;-67
2021/12/23 18:23:47;;;;;;;34.60;29.47;;;;;;;;;;6172137;28;20243;-69
2021/12/23 18:27:08;;;;;;;41.63;32.23;;;;;;;;;;6186638;28;20234;-67
2021/12/23 18:30:29;;;;;;;38.10;30.63;;;;;;;;;;6193083;28;20230;-68
2021/12/23 18:33:51;;;;;;;39.13;32.80;;;;;;;;;;6191257;28;20254;-70
2021/12/23 18:37:12;;;;;;;40.80;34.07;;;;;;;;;;6180823;28;20235;-68
2021/12/23 18:40:37;;;;;;;39.57;33.67;;;;;;;;;;6196244;28;20619;-69
2021/12/23 18:44:00;;;;;;;41.97;34.70;;;;;;;;;;6190963;28;20604;-69
2021/12/23 18:47:21;;;;;;;46.23;35.60;;;;;;;;;;6182579;28;20687;-68
2021/12/23 18:50:43;;;;;;;45.53;35.07;;;;;;;;;;6173388;28;20230;-67
2021/12/23 18:54:04;;;;;;;40.47;32.30;;;;;;;;;;6180345;28;20316;-67
2021/12/23 18:57:25;;;;;;;43.67;33.87;;;;;;;;;;6191886;28;20235;-68
2021/12/23 19:00:53;;;;;;;39.10;33.63;;;;;;;;;;6190927;28;20222;-66
2021/12/23 19:08:00;;;;;;;45.20;35.93;;;;;;;;;;6186403;28;20233;-67
2021/12/23 19:11:24;;;;;;;41.33;35.23;;;;;;;;;;6171861;28;20332;-67
2021/12/23 19:14:45;;;;;;;42.07;36.47;;;;;;;;;;6184597;28;20242;-69
2021/12/23 19:18:08;;;;;;;41.07;32.67;;;;;;;;;;6181989;28;20234;-67
2021/12/23 19:21:29;;;;;;;44.27;34.93;;;;;;;;;;6176116;28;20246;-68
2021/12/23 19:24:51;;;;;;;39.50;32.63;;;;;;;;;;6190446;28;20325;-68
2021/12/23 19:28:11;;;;;;;39.73;32.80;;;;;;;;;;6187983;28;20230;-67
2021/12/23 19:31:32;;;;;;;37.37;31.37;;;;;;;;;;6183078;28;20246;-68
2021/12/23 19:34:54;;;;;;;38.40;32.53;;;;;;;;;;6189093;28;20233;-68
2021/12/23 19:38:15;;;;;;;36.03;31.60;;;;;;;;;;6181724;28;20237;-67
2021/12/23 19:41:38;;;;;;;37.20;30.90;;;;;;;;;;6183567;28;20245;-67
2021/12/23 19:45:00;;;;;;;34.27;29.70;;;;;;;;;;6184405;28;20666;-67
2021/12/23 19:48:21;;;;;;;31.47;27.00;;;;;;;;;;6191365;28;20223;-66
2021/12/23 19:51:44;;;;;;;30.63;27.33;;;;;;;;;;6184614;28;20238;-67
2021/12/23 19:55:06;;;;;;;31.27;26.80;;;;;;;;;;6170834;28;20605;-69
2021/12/23 19:58:28;;;;;;;32.13;26.67;;;;;;;;;;6183052;28;20221;-67
2021/12/23 20:01:49;;;;;;;31.10;26.87;;;;;;;;;;6190215;28;20259;-68
2021/12/23 20:05:13;;;;;;;32.57;28.10;;;;;;;;;;6193764;28;20234;-67
2021/12/23 20:08:33;;;;;;;31.53;27.40;;;;;;;;;;6195055;28;20237;-67
2021/12/23 20:11:54;;;;;;;31.43;26.40;;;;;;;;;;6187320;28;20225;-68
2021/12/23 20:15:17;;;;;;;29.73;25.40;;;;;;;;;;6192375;28;20268;-68
2021/12/23 20:18:41;;;;;;;30.90;26.37;;;;;;;;;;6177625;28;20821;-68
2021/12/23 20:22:02;;;;;;;30.00;26.90;;;;;;;;;;6178832;28;20226;-68
2021/12/23 20:25:23;;;;;;;28.50;25.53;;;;;;;;;;6179484;28;20231;-67
2021/12/23 20:28:44;;;;;;;31.17;24.87;;;;;;;;;;6183751;28;20230;-67
2021/12/23 20:32:07;;;;;;;30.27;22.90;;;;;;;;;;6190345;28;20608;-68
2021/12/23 20:35:30;;;;;;;27.33;23.30;;;;;;;;;;6186614;28;20523;-69
2021/12/23 20:38:52;;;;;;;25.17;21.77;;;;;;;;;;6172670;28;20488;-68
2021/12/23 20:42:13;;;;;;;23.07;20.67;;;;;;;;;;6184321;28;20575;-67
2021/12/23 20:45:34;;;;;;;27.07;21.67;;;;;;;;;;6184007;28;20257;-68
2021/12/23 20:48:58;;;;;;;23.20;20.70;;;;;;;;;;6178187;28;20234;-69
2021/12/23 20:52:19;;;;;;;22.53;19.43;;;;;;;;;;6189203;28;20312;-67